createdAt,value
2019-01-25T00:02:30.417Z,-3.80
2019-01-25T00:05:01.123Z,-3.80
2019-01-25T00:07:31.956Z,-3.80
2019-01-25T00:10:02.441Z,-3.80
2019-01-25T00:12:33.283Z,-3.70
2019-01-25T00:15:05.303Z,-3.80
2019-01-25T00:17:36.154Z,-3.80
2019-01-25T00:20:08.055Z,-3.80
2019-01-25T00:22:38.712Z,-3.80
2019-01-25T00:25:09.523Z,-3.80
2019-01-25T00:27:40.276Z,-3.70
2019-01-25T00:30:13.305Z,-3.80
2019-01-25T00:32:44.108Z,-3.80
2019-01-25T00:35:14.628Z,-3.80
2019-01-25T00:37:45.300Z,-3.80
2019-01-25T00:40:17.029Z,-3.70
2019-01-25T00:42:47.645Z,-3.80
2019-01-25T00:45:18.409Z,-3.80
2019-01-25T00:47:49.269Z,-3.70
2019-01-25T00:50:20.586Z,-3.70
2019-01-25T00:52:51.413Z,-3.70
2019-01-25T00:55:22.486Z,-3.70
2019-01-25T00:57:53.353Z,-3.70
2019-01-25T01:00:26.069Z,-3.80
2019-01-25T01:02:56.603Z,-3.80
2019-01-25T01:05:27.234Z,-3.80
2019-01-25T01:07:57.734Z,-3.80
2019-01-25T01:10:28.546Z,-3.80
2019-01-25T01:12:59.435Z,-3.80
2019-01-25T01:15:30.312Z,-3.80
2019-01-25T01:18:00.838Z,-3.80
2019-01-25T01:20:31.432Z,-3.90
2019-01-25T01:23:02.338Z,-3.90
2019-01-25T01:25:32.851Z,-3.90
2019-01-25T01:28:03.410Z,-3.80
2019-01-25T01:30:33.944Z,-3.90
2019-01-25T01:33:04.442Z,-3.80
2019-01-25T01:35:35.252Z,-3.90
2019-01-25T01:38:06.018Z,-3.90
2019-01-25T01:40:36.542Z,-4.00
2019-01-25T01:43:07.057Z,-3.90
2019-01-25T01:45:37.571Z,-3.90
2019-01-25T01:48:08.393Z,-3.90
2019-01-25T01:50:39.229Z,-3.90
2019-01-25T01:53:09.753Z,-4.00
2019-01-25T01:55:40.298Z,-4.00
2019-01-25T01:58:10.813Z,-4.00
2019-01-25T02:00:41.497Z,-4.00
2019-01-25T02:03:12.525Z,-4.00
2019-01-25T02:05:43.279Z,-4.00
2019-01-25T02:08:14.638Z,-4.00
2019-01-25T02:10:45.396Z,-4.00
2019-01-25T02:13:16.470Z,-4.00
2019-01-25T02:15:47.125Z,-4.00
2019-01-25T02:18:17.762Z,-4.00
2019-01-25T02:20:48.392Z,-4.00
2019-01-25T02:23:18.935Z,-4.00
2019-01-25T02:25:49.467Z,-3.90
2019-01-25T02:28:20.563Z,-3.90
2019-01-25T02:30:51.061Z,-3.90
2019-01-25T02:33:21.742Z,-3.90
2019-01-25T02:35:52.475Z,-3.90
2019-01-25T02:38:22.992Z,-4.00
2019-01-25T02:40:53.531Z,-4.00
2019-01-25T02:43:24.671Z,-4.00
2019-01-25T02:45:55.201Z,-4.00
2019-01-25T02:48:25.742Z,-4.00
2019-01-25T02:50:56.889Z,-4.00
2019-01-25T02:53:27.400Z,-3.90
2019-01-25T02:55:57.905Z,-3.90
2019-01-25T02:58:28.692Z,-3.90
2019-01-25T03:00:59.495Z,-3.90
2019-01-25T03:03:30.016Z,-3.90
2019-01-25T03:06:00.584Z,-3.90
2019-01-25T03:08:31.461Z,-4.00
2019-01-25T03:11:02.046Z,-4.00
2019-01-25T03:13:32.570Z,-4.00
2019-01-25T03:16:03.150Z,-4.00
2019-01-25T03:18:33.645Z,-4.00
2019-01-25T03:21:05.081Z,-4.00
2019-01-25T03:23:35.698Z,-4.00
2019-01-25T03:26:06.545Z,-4.00
2019-01-25T03:28:37.030Z,-4.00
2019-01-25T03:31:07.607Z,-4.00
2019-01-25T03:33:38.134Z,-4.00
2019-01-25T03:36:08.619Z,-4.00
2019-01-25T03:38:39.393Z,-4.00
2019-01-25T03:41:09.922Z,-4.00
2019-01-25T03:43:40.492Z,-4.00
2019-01-25T03:46:11.028Z,-4.00
2019-01-25T03:48:41.718Z,-4.00
2019-01-25T03:51:12.587Z,-4.10
2019-01-25T03:53:43.140Z,-4.10
2019-01-25T03:56:14.893Z,-4.20
2019-01-25T03:58:45.644Z,-4.30
2019-01-25T04:01:16.760Z,-4.30
2019-01-25T04:03:47.356Z,-4.40
2019-01-25T04:06:18.006Z,-4.50
2019-01-25T04:08:48.596Z,-4.50
2019-01-25T04:11:19.240Z,-4.50
2019-01-25T04:13:49.746Z,-4.60
2019-01-25T04:16:20.856Z,-4.70
2019-01-25T04:18:51.728Z,-4.80
2019-01-25T04:21:22.532Z,-4.80
2019-01-25T04:23:53.082Z,-4.90
2019-01-25T04:26:23.643Z,-5.10
2019-01-25T04:28:54.115Z,-5.20
2019-01-25T04:31:24.979Z,-5.20
2019-01-25T04:33:55.757Z,-5.30
2019-01-25T04:36:26.588Z,-5.30
2019-01-25T04:38:57.092Z,-5.40
2019-01-25T04:41:27.641Z,-5.50
2019-01-25T04:43:58.122Z,-5.50
2019-01-25T04:46:28.931Z,-5.60
2019-01-25T04:48:59.754Z,-5.70
2019-01-25T04:51:30.259Z,-5.80
2019-01-25T04:54:00.808Z,-5.90
2019-01-25T04:56:37.806Z,-6.00
2019-01-25T04:59:08.617Z,-6.00
2019-01-25T05:01:39.135Z,-6.10
2019-01-25T05:04:09.969Z,-6.20
2019-01-25T05:06:40.792Z,-6.20
2019-01-25T05:09:11.587Z,-6.20
2019-01-25T05:11:42.066Z,-6.20
2019-01-25T05:14:12.743Z,-6.20
2019-01-25T05:16:43.247Z,-6.20
2019-01-25T05:19:14.978Z,-6.20
2019-01-25T05:21:45.843Z,-6.30
2019-01-25T05:24:16.642Z,-6.30
2019-01-25T05:26:47.151Z,-6.30
2019-01-25T05:29:22.289Z,-6.40
2019-01-25T05:31:52.782Z,-6.40
2019-01-25T05:34:23.298Z,-6.50
2019-01-25T05:36:53.886Z,-6.60
2019-01-25T05:39:24.658Z,-6.70
2019-01-25T05:41:55.261Z,-6.70
2019-01-25T05:44:25.851Z,-6.70
2019-01-25T05:46:56.684Z,-6.80
2019-01-25T05:49:27.296Z,-6.80
2019-01-25T05:51:57.931Z,-6.70
2019-01-25T05:54:28.736Z,-6.70
2019-01-25T05:56:59.242Z,-6.60
2019-01-25T05:59:29.766Z,-6.60
2019-01-25T06:02:00.289Z,-6.50
2019-01-25T06:04:36.887Z,-6.60
2019-01-25T06:07:07.551Z,-6.50
2019-01-25T06:09:38.067Z,-6.40
2019-01-25T06:12:08.796Z,-6.40
2019-01-25T06:14:39.346Z,-6.30
2019-01-25T06:17:09.882Z,-6.30
2019-01-25T06:19:40.657Z,-6.30
2019-01-25T06:22:11.172Z,-6.30
2019-01-25T06:24:46.739Z,-6.30
2019-01-25T06:27:17.401Z,-6.40
2019-01-25T06:29:47.935Z,-6.40
2019-01-25T06:32:18.780Z,-6.50
2019-01-25T06:34:49.328Z,-6.50
2019-01-25T06:37:20.128Z,-6.60
2019-01-25T06:39:50.985Z,-6.70
2019-01-25T06:42:21.790Z,-6.80
2019-01-25T06:44:52.290Z,-6.90
2019-01-25T06:47:22.827Z,-7.00
2019-01-25T06:49:53.321Z,-7.10
2019-01-25T06:52:24.264Z,-7.20
2019-01-25T06:54:55.009Z,-7.30
2019-01-25T06:57:32.318Z,-7.50
2019-01-25T07:00:02.966Z,-7.50
2019-01-25T07:02:37.332Z,-7.50
2019-01-25T07:05:09.044Z,-7.50
2019-01-25T07:07:41.793Z,-7.50
2019-01-25T07:10:16.885Z,-7.50
2019-01-25T07:12:47.636Z,-7.50
2019-01-25T07:15:21.740Z,-7.50
2019-01-25T07:17:52.274Z,-7.40
2019-01-25T07:20:22.874Z,-7.30
2019-01-25T07:22:53.462Z,-7.20
2019-01-25T07:25:24.238Z,-7.20
2019-01-25T07:27:55.086Z,-7.20
2019-01-25T07:30:25.873Z,-7.10
2019-01-25T07:32:56.406Z,-7.00
2019-01-25T07:35:26.955Z,-6.80
2019-01-25T07:37:57.455Z,-6.70
2019-01-25T07:40:28.503Z,-6.50
2019-01-25T07:42:59.186Z,-6.40
2019-01-25T07:45:30.157Z,-6.30
2019-01-25T07:48:00.925Z,-6.20
2019-01-25T07:50:31.467Z,-6.10
2019-01-25T07:53:02.029Z,-6.00
2019-01-25T07:55:32.539Z,-6.10
2019-01-25T07:58:03.137Z,-6.10
2019-01-25T08:00:33.887Z,-6.10
2019-01-25T08:03:04.512Z,-6.00
2019-01-25T08:05:35.100Z,-6.00
2019-01-25T08:08:05.947Z,-5.90
2019-01-25T08:10:36.503Z,-5.80
2019-01-25T08:13:08.588Z,-5.70
2019-01-25T08:15:39.119Z,-5.80
2019-01-25T08:18:09.904Z,-5.80
2019-01-25T08:20:40.397Z,-5.80
2019-01-25T08:23:11.012Z,-5.70
2019-01-25T08:25:41.552Z,-5.60
2019-01-25T08:28:12.269Z,-5.50
2019-01-25T08:30:43.129Z,-5.50
2019-01-25T08:33:15.112Z,-5.30
2019-01-25T08:35:45.907Z,-5.20
2019-01-25T08:38:16.475Z,-5.00
2019-01-25T08:40:47.078Z,-4.90
2019-01-25T08:43:17.621Z,-4.90
2019-01-25T08:45:49.440Z,-4.80
2019-01-25T08:48:20.412Z,-4.80
2019-01-25T08:50:51.106Z,-4.70
2019-01-25T08:53:21.709Z,-4.70
2019-01-25T08:55:52.287Z,-4.70
2019-01-25T08:58:23.367Z,-4.70
2019-01-25T09:00:54.167Z,-4.60
2019-01-25T09:03:24.760Z,-4.60
2019-01-25T09:05:55.329Z,-4.50
2019-01-25T09:08:26.069Z,-4.40
2019-01-25T09:10:56.591Z,-4.40
2019-01-25T09:13:27.773Z,-4.30
2019-01-25T09:15:58.270Z,-4.10
2019-01-25T09:18:29.151Z,-4.00
2019-01-25T09:20:59.685Z,-3.80
2019-01-25T09:23:30.178Z,-3.70
2019-01-25T09:26:01.305Z,-3.60
2019-01-25T09:28:32.406Z,-3.50
2019-01-25T09:31:03.232Z,-3.40
2019-01-25T09:33:34.044Z,-3.20
2019-01-25T09:36:04.669Z,-2.80
2019-01-25T09:38:35.191Z,-2.50
2019-01-25T09:41:05.808Z,-2.20
2019-01-25T09:43:36.338Z,-2.00
2019-01-25T09:46:06.907Z,-1.80
2019-01-25T09:48:37.445Z,-1.80
2019-01-25T09:51:08.183Z,-1.90
2019-01-25T09:53:38.710Z,-2.00
2019-01-25T09:56:09.253Z,-1.80
2019-01-25T09:58:45.120Z,-1.70
2019-01-25T10:01:16.016Z,-1.30
2019-01-25T10:03:46.549Z,-1.00
2019-01-25T10:06:17.448Z,-1.10
2019-01-25T10:08:48.294Z,-1.40
2019-01-25T10:11:19.166Z,-1.30
2019-01-25T10:13:49.659Z,-1.30
2019-01-25T10:16:20.895Z,-1.40
2019-01-25T10:18:51.446Z,-1.30
2019-01-25T10:21:22.261Z,-1.10
2019-01-25T10:23:52.789Z,-1.10
2019-01-25T10:26:23.373Z,-1.40
2019-01-25T10:28:54.134Z,-1.30
2019-01-25T10:31:24.938Z,-1.00
2019-01-25T10:33:55.484Z,-0.80
2019-01-25T10:36:26.394Z,-0.70
2019-01-25T10:38:57.231Z,-0.80
2019-01-25T10:41:27.738Z,-0.80
2019-01-25T10:43:58.317Z,-0.70
2019-01-25T10:46:29.133Z,-0.90
2019-01-25T10:48:59.674Z,-0.90
2019-01-25T10:51:30.478Z,-0.60
2019-01-25T10:54:01.327Z,-0.60
2019-01-25T10:56:31.821Z,-0.60
2019-01-25T10:59:02.354Z,-0.60
2019-01-25T11:01:32.918Z,-0.70
2019-01-25T11:04:03.420Z,-0.70
2019-01-25T11:06:34.229Z,-0.90
2019-01-25T11:09:06.840Z,-0.70
2019-01-25T11:11:37.413Z,-0.70
2019-01-25T11:14:08.360Z,-0.80
2019-01-25T11:16:38.900Z,-0.60
2019-01-25T11:19:09.626Z,-0.50
2019-01-25T11:21:40.521Z,-0.60
2019-01-25T11:24:11.368Z,-0.50
2019-01-25T11:26:41.892Z,-0.40
2019-01-25T11:29:12.462Z,-0.40
2019-01-25T11:31:43.312Z,-0.40
2019-01-25T11:34:15.039Z,-0.10
2019-01-25T11:36:45.979Z,-0.10
2019-01-25T11:39:16.770Z,-0.20
2019-01-25T11:41:47.370Z,-0.40
2019-01-25T11:44:18.062Z,-0.40
2019-01-25T11:46:48.658Z,-0.50
2019-01-25T11:49:19.765Z,-0.60
2019-01-25T11:51:50.631Z,-0.60
2019-01-25T11:54:21.505Z,-0.80
2019-01-25T11:56:52.345Z,-0.80
2019-01-25T11:59:23.580Z,-0.70
2019-01-25T12:01:55.890Z,-0.60
2019-01-25T12:04:26.929Z,-0.50
2019-01-25T12:06:57.612Z,-0.50
2019-01-25T12:09:28.485Z,-0.50
2019-01-25T12:11:59.066Z,-0.40
2019-01-25T12:14:29.732Z,-0.30
2019-01-25T12:17:00.413Z,-0.30
2019-01-25T12:19:30.942Z,-0.30
2019-01-25T12:22:01.718Z,-0.60
2019-01-25T12:24:33.101Z,-0.60
2019-01-25T12:27:03.666Z,-0.80
2019-01-25T12:29:34.474Z,-0.60
2019-01-25T12:32:05.237Z,-0.70
2019-01-25T12:34:35.755Z,-0.70
2019-01-25T12:37:06.732Z,-0.60
2019-01-25T12:39:37.617Z,-0.50
2019-01-25T12:42:08.535Z,-0.40
2019-01-25T12:44:39.332Z,-0.40
2019-01-25T12:47:09.918Z,-0.50
2019-01-25T12:49:40.617Z,-0.40
2019-01-25T12:52:12.048Z,-0.30
2019-01-25T12:54:42.707Z,-0.20
2019-01-25T12:57:13.510Z,-0.20
2019-01-25T12:59:44.109Z,0.10
2019-01-25T13:02:15.939Z,0.20
2019-01-25T13:04:46.597Z,0.20
2019-01-25T13:07:17.898Z,0.40
2019-01-25T13:09:49.558Z,0.00
2019-01-25T13:12:25.097Z,0.20
2019-01-25T13:14:52.581Z,0.30
2019-01-25T13:17:23.772Z,0.10
2019-01-25T13:19:54.766Z,0.10
2019-01-25T13:22:25.885Z,0.00
2019-01-25T13:24:56.770Z,0.10
2019-01-25T13:27:27.713Z,0.20
2019-01-25T13:29:59.297Z,0.20
2019-01-25T13:32:29.971Z,0.20
2019-01-25T13:35:00.609Z,0.20
2019-01-25T13:37:31.586Z,0.20
2019-01-25T13:40:02.258Z,0.20
2019-01-25T13:42:33.071Z,0.30
2019-01-25T13:45:04.042Z,0.10
2019-01-25T13:47:34.925Z,0.10
2019-01-25T13:50:06.888Z,0.10
2019-01-25T13:52:37.578Z,0.00
2019-01-25T13:55:10.780Z,0.00
2019-01-25T13:57:41.350Z,-0.10
2019-01-25T14:00:30.981Z,-0.20
2019-01-25T14:03:02.029Z,-0.20
2019-01-25T14:05:32.964Z,-0.10
2019-01-25T14:08:03.632Z,0.00
2019-01-25T14:10:36.306Z,0.00
2019-01-25T14:13:07.268Z,0.00
2019-01-25T14:15:38.162Z,0.10
2019-01-25T14:18:08.862Z,0.00
2019-01-25T14:20:39.623Z,0.10
2019-01-25T14:23:10.198Z,0.20
2019-01-25T14:25:41.358Z,0.10
2019-01-25T14:28:11.883Z,0.20
2019-01-25T14:30:43.797Z,0.10
2019-01-25T14:33:15.531Z,0.10
2019-01-25T14:35:46.153Z,0.20
2019-01-25T14:38:18.129Z,0.20
2019-01-25T14:40:48.814Z,0.20
2019-01-25T14:43:20.034Z,0.20
2019-01-25T14:45:50.935Z,0.10
2019-01-25T14:48:21.807Z,0.00
2019-01-25T14:50:52.706Z,0.00
2019-01-25T14:53:23.336Z,0.00
2019-01-25T14:55:53.878Z,-0.10
2019-01-25T14:58:24.942Z,-0.20
2019-01-25T15:00:57.749Z,-0.10
2019-01-25T15:03:28.505Z,-0.20
2019-01-25T15:05:59.090Z,-0.30
2019-01-25T15:08:30.232Z,-0.40
2019-01-25T15:11:00.853Z,-0.40
2019-01-25T15:13:32.088Z,-0.40
2019-01-25T15:16:03.276Z,-0.40
2019-01-25T15:18:34.337Z,-0.40
2019-01-25T15:21:04.975Z,-0.40
2019-01-25T15:23:35.780Z,-0.50
2019-01-25T15:26:06.611Z,-0.50
2019-01-25T15:28:37.189Z,-0.40
2019-01-25T15:31:08.012Z,-0.50
2019-01-25T15:33:38.923Z,-0.50
2019-01-25T15:36:09.971Z,-0.40
2019-01-25T15:38:40.867Z,-0.50
2019-01-25T15:41:11.456Z,-0.40
2019-01-25T15:43:42.143Z,-0.50
2019-01-25T15:46:13.062Z,-0.40
2019-01-25T15:48:43.920Z,-0.50
2019-01-25T15:51:15.985Z,-0.50
2019-01-25T15:53:46.762Z,-0.50
2019-01-25T15:56:17.316Z,-0.60
2019-01-25T15:58:47.961Z,-0.60
2019-01-25T16:01:18.704Z,-0.60
2019-01-25T16:03:49.303Z,-0.70
2019-01-25T16:06:20.306Z,-0.80
2019-01-25T16:08:50.864Z,-0.80
2019-01-25T16:11:21.955Z,-0.90
2019-01-25T16:13:52.946Z,-0.90
2019-01-25T16:16:25.483Z,-1.00
2019-01-25T16:18:56.091Z,-1.00
2019-01-25T16:21:26.939Z,-1.20
2019-01-25T16:23:57.806Z,-1.20
2019-01-25T16:26:28.366Z,-1.30
2019-01-25T16:28:58.903Z,-1.30
2019-01-25T16:31:30.034Z,-1.50
2019-01-25T16:34:00.680Z,-1.50
2019-01-25T16:36:31.281Z,-1.50
2019-01-25T16:39:02.077Z,-1.60
2019-01-25T16:41:32.988Z,-1.60
2019-01-25T16:44:03.888Z,-1.60
2019-01-25T16:46:34.519Z,-1.60
2019-01-25T16:49:05.297Z,-1.60
2019-01-25T16:51:36.095Z,-1.50
2019-01-25T16:54:07.162Z,-1.50
2019-01-25T16:56:37.974Z,-1.60
2019-01-25T16:59:08.813Z,-1.50
2019-01-25T17:01:39.432Z,-1.60
2019-01-25T17:04:10.149Z,-1.50
2019-01-25T17:06:40.723Z,-1.50
2019-01-25T17:09:11.485Z,-1.60
2019-01-25T17:11:43.012Z,-1.60
2019-01-25T17:14:14.080Z,-1.60
2019-01-25T17:16:44.960Z,-1.60
2019-01-25T17:19:16.383Z,-1.60
2019-01-25T17:21:47.137Z,-1.60
2019-01-25T17:24:18.017Z,-1.60
2019-01-25T17:26:48.901Z,-1.60
2019-01-25T17:29:19.507Z,-1.50
2019-01-25T17:31:50.153Z,-1.50
2019-01-25T17:34:20.758Z,-1.50
2019-01-25T17:36:51.397Z,-1.50
2019-01-25T17:39:22.259Z,-1.50
2019-01-25T17:41:53.034Z,-1.50
2019-01-25T17:44:23.633Z,-1.60
2019-01-25T17:46:54.277Z,-1.50
2019-01-25T17:49:25.223Z,-1.50
2019-01-25T17:51:56.133Z,-1.50
2019-01-25T17:54:27.012Z,-1.40
2019-01-25T17:59:21.877Z,-1.40
2019-01-25T18:01:52.538Z,-1.50
2019-01-25T18:04:23.339Z,-1.50
2019-01-25T18:06:54.276Z,-1.50
2019-01-25T18:09:25.208Z,-1.50
2019-01-25T18:11:56.202Z,-1.40
2019-01-25T18:14:27.059Z,-1.50
2019-01-25T18:16:57.633Z,-1.40
2019-01-25T18:19:28.461Z,-1.50
2019-01-25T18:22:00.570Z,-1.40
2019-01-25T18:24:31.751Z,-1.40
2019-01-25T18:27:02.356Z,-1.40
2019-01-25T18:29:51.071Z,-1.40
2019-01-25T18:32:24.123Z,-1.50
2019-01-25T18:34:55.058Z,-1.50
2019-01-25T18:37:26.337Z,-1.50
2019-01-25T18:39:57.195Z,-1.50
2019-01-25T18:42:28.049Z,-1.50
2019-01-25T18:44:58.680Z,-1.50
2019-01-25T18:47:29.367Z,-1.50
2019-01-25T18:50:00.265Z,-1.50
2019-01-25T18:52:31.450Z,-1.50
2019-01-25T18:55:02.378Z,-1.40
2019-01-25T18:57:33.209Z,-1.40
2019-01-25T19:00:05.232Z,-1.50
2019-01-25T19:02:36.175Z,-1.40
2019-01-25T19:05:08.640Z,-1.40
2019-01-25T19:07:39.369Z,-1.30
2019-01-25T19:10:15.277Z,-1.40
2019-01-25T19:12:45.956Z,-1.40
2019-01-25T19:15:21.727Z,-1.40
2019-01-25T19:17:52.367Z,-1.40
2019-01-25T19:20:23.263Z,-1.40
2019-01-25T19:22:54.236Z,-1.30
2019-01-25T19:25:25.519Z,-1.40
2019-01-25T19:27:56.318Z,-1.30
2019-01-25T19:30:30.876Z,-1.40
2019-01-25T19:33:01.556Z,-1.30
2019-01-25T19:35:32.551Z,-1.40
2019-01-25T19:38:03.533Z,-1.40
2019-01-25T19:40:34.393Z,-1.40
2019-01-25T19:43:05.835Z,-1.40
2019-01-25T19:45:41.637Z,-1.40
2019-01-25T19:48:12.228Z,-1.40
2019-01-25T19:50:43.142Z,-1.40
2019-01-25T19:53:13.699Z,-1.40
2019-01-25T19:55:44.425Z,-1.40
2019-01-25T19:58:18.880Z,-1.40
2019-01-25T20:00:49.519Z,-1.30
2019-01-25T20:03:20.476Z,-1.30
2019-01-25T20:05:51.305Z,-1.30
2019-01-25T20:08:22.284Z,-1.40
2019-01-25T20:10:53.146Z,-1.40
2019-01-25T20:13:24.032Z,-1.30
2019-01-25T20:15:54.664Z,-1.40
2019-01-25T20:18:25.493Z,-1.30
2019-01-25T20:20:56.323Z,-1.30
2019-01-25T20:23:27.297Z,-1.30
2019-01-25T20:25:57.860Z,-1.40
2019-01-25T20:28:28.582Z,-1.30
2019-01-25T20:30:59.405Z,-1.30
2019-01-25T20:33:30.328Z,-1.30
2019-01-25T20:36:01.215Z,-1.30
2019-01-25T20:38:31.822Z,-1.20
2019-01-25T20:41:03.391Z,-1.20
2019-01-25T20:43:34.726Z,-1.20
2019-01-25T20:46:05.569Z,-1.30
2019-01-25T20:48:37.173Z,-1.20
2019-01-25T20:51:07.935Z,-1.20
2019-01-25T20:53:38.564Z,-1.20
2019-01-25T20:56:10.706Z,-1.20
2019-01-25T20:58:41.426Z,-1.20
2019-01-25T21:01:12.136Z,-1.20
2019-01-25T21:03:42.729Z,-1.30
2019-01-25T21:06:13.400Z,-1.30
2019-01-25T21:08:44.234Z,-1.20
2019-01-25T21:11:15.970Z,-1.20
2019-01-25T21:13:46.595Z,-1.20
2019-01-25T21:16:17.440Z,-1.20
2019-01-25T21:18:48.005Z,-1.20
2019-01-25T21:21:18.857Z,-1.20
2019-01-25T21:23:49.472Z,-1.20
2019-01-25T21:26:20.643Z,-1.20
2019-01-25T21:28:51.621Z,-1.20
2019-01-25T21:31:22.727Z,-1.20
2019-01-25T21:33:53.810Z,-1.20
2019-01-25T21:36:25.350Z,-1.20
2019-01-25T21:38:59.147Z,-1.10
2019-01-25T21:41:30.049Z,-1.10
2019-01-25T21:44:00.811Z,-1.10
2019-01-25T21:46:40.366Z,-1.10
2019-01-25T21:49:10.566Z,-1.10
2019-01-25T21:51:41.141Z,-1.10
2019-01-25T21:54:12.004Z,-1.10
2019-01-25T21:56:42.660Z,-1.10
2019-01-25T21:59:15.155Z,-1.10
2019-01-25T22:01:45.815Z,-1.00
2019-01-25T22:04:19.213Z,-1.10
2019-01-25T22:06:49.910Z,-1.10
2019-01-25T22:09:21.022Z,-1.10
2019-01-25T22:11:51.583Z,-1.10
2019-01-25T22:14:24.467Z,-1.10
2019-01-25T22:16:55.059Z,-1.10
2019-01-25T22:19:26.126Z,-1.10
2019-01-25T22:21:56.727Z,-1.00
2019-01-25T22:24:27.678Z,-1.00
2019-01-25T22:26:58.537Z,-1.00
2019-01-25T22:29:29.528Z,-1.00
2019-01-25T22:32:00.127Z,-0.90
2019-01-25T22:34:31.085Z,-0.90
2019-01-25T22:37:01.769Z,-1.00
2019-01-25T22:39:32.646Z,-1.00
2019-01-25T22:42:03.496Z,-1.00
2019-01-25T22:44:34.087Z,-1.00
2019-01-25T22:47:04.778Z,-1.10
2019-01-25T22:49:35.549Z,-1.10
2019-01-25T22:52:06.262Z,-1.10
2019-01-25T22:54:38.282Z,-1.10
2019-01-25T22:57:08.841Z,-1.00
2019-01-25T22:59:39.578Z,-1.10
2019-01-25T23:02:10.790Z,-1.10
2019-01-25T23:05:31.991Z,-1.10
2019-01-25T23:08:02.533Z,-1.00
2019-01-25T23:10:33.515Z,-1.00
2019-01-25T23:13:04.239Z,-1.00
2019-01-25T23:15:35.109Z,-1.00
2019-01-25T23:18:05.926Z,-1.00
2019-01-25T23:20:36.619Z,-1.00
2019-01-25T23:23:07.551Z,-1.00
2019-01-25T23:25:39.549Z,-1.00
2019-01-25T23:28:10.136Z,-1.00
2019-01-25T23:30:40.686Z,-1.00
2019-01-25T23:33:11.565Z,-0.90
2019-01-25T23:35:42.115Z,-1.00
2019-01-25T23:38:12.647Z,-1.00
2019-01-25T23:40:43.260Z,-1.00
2019-01-25T23:43:13.895Z,-1.00
2019-01-25T23:45:44.706Z,-0.90
2019-01-25T23:48:18.214Z,-0.90
2019-01-25T23:50:48.816Z,-1.00
2019-01-25T23:53:19.540Z,-1.00
2019-01-25T23:55:50.081Z,-1.00
2019-01-25T23:58:20.892Z,-1.00
